• Join FlightAware (Why Join?)
  • Login
  • US Flag 
05:03PM EDT


 

Airport Tracker/Info


-or-


 

Live Flight TrackerFlight Track Log ✈ SWA1021 ✈ 20-Apr-2013 ✈ KMCO - KSTL

Flight Track Log - Related Links

Times and Time Zones

All times are in EDT time to prevent confusion due to time zone crossing. See the SWA1021 flight status page for this flight to view local times or setup timezone preferences in your user account.

Time Position Orientation Groundspeed Altitude Reporting Facility
EDT Latitude Longitude Course Direction KTS MPH feet Rate Location/Type
10:24AM 28.4333 -81.3000 360° North 149 171 1,000  Level Orlando TRACON
10:24AM 28.4500 -81.3000 360° North 162 186 1,900 1,920 Climbing Orlando TRACON
10:25AM 28.5167 -81.3167 348° North 234 269 3,900 2,520 Climbing Orlando TRACON
10:26AM 28.5333 -81.4000 283° West 264 304 7,000 3,300 Climbing Orlando TRACON
10:27AM 28.5333 -81.4833 270° West 264 304 10,600 2,820 Climbing Orlando TRACON
10:28AM 28.5333 -81.5667 270° West 341 392 12,700 2,580 Climbing Orlando TRACON
10:29AM 28.5167 -81.6833 261° West 341 392 15,800 1,860 Climbing Orlando TRACON
10:31AM 28.5133 -81.8792 269° West 384 442 18,200 1,620 Climbing Jacksonville Center
10:32AM 28.5078 -81.9997 267° West 379 436 20,500 2,580 Climbing Jacksonville Center
10:33AM 28.5025 -82.1342 267° West 386 444 23,400 2,520 Climbing Jacksonville Center
10:34AM 28.4947 -82.2572 266° West 386 444 25,600 2,100 Climbing Jacksonville Center
10:35AM 28.5142 -82.3775 280° West 391 450 27,600 1,800 Climbing Jacksonville Center
10:36AM 28.6144 -82.4622 323° Northwest 385 443 29,300 1,200 Climbing Jacksonville Center
10:37AM 28.7108 -82.5303 328° Northwest 415 478 30,000 300 Climbing Jacksonville Center
10:38AM 28.7903 -82.6367 310° West 425 489 30,000 240 Level Jacksonville Center
10:39AM 28.8636 -82.7481 307° West 435 501 30,500 1,200 Climbing Jacksonville Center
10:40AM 28.9367 -82.8547 308° West 435 501 32,500 1,740 Climbing Jacksonville Center
10:41AM 29.0139 -82.9592 310° West 435 501 34,000 720 Climbing Jacksonville Center
10:42AM 29.0911 -83.0614 311° West 435 501 34,000  Level Jacksonville Center
10:43AM 29.1994 -83.1281 332° Northwest 435 501 34,000  Level Jacksonville Center
10:44AM 29.3331 -83.1403 355° North 440 506 34,000  Level Jacksonville Center
10:45AM 29.4750 -83.1456 358° North 450 518 34,000  Level Jacksonville Center
10:46AM 29.5897 -83.1864 343° North 471 542 34,000  Level Jacksonville Center
10:47AM 29.7022 -83.2703 327° Northwest 435 501 34,000 420 Level Jacksonville Center
10:48AM 29.8022 -83.3544 324° Northwest 435 501 34,900 960 Climbing Jacksonville Center
10:49AM 29.9042 -83.4342 326° Northwest 446 513 36,000 540 Climbing Jacksonville Center
10:50AM 30.0042 -83.5114 326° Northwest 440 506 36,000  Level Jacksonville Center
10:51AM 30.1039 -83.5911 325° Northwest 435 501 36,000  Level Jacksonville Center
10:52AM 30.2036 -83.6714 325° Northwest 440 506 36,000  Level Jacksonville Center
10:53AM 30.3011 -83.7514 325° Northwest 440 506 36,000  Level Jacksonville Center
10:54AM 30.4031 -83.8342 325° Northwest 440 506 36,000 300 Level Jacksonville Center
10:55AM 30.5025 -83.9147 325° Northwest 440 506 36,600 900 Climbing Jacksonville Center
10:56AM 30.5875 -83.9881 323° Northwest 435 501 37,800 660 Climbing Jacksonville Center
10:57AM 30.6869 -84.0667 326° Northwest 430 495 38,000 60 Climbing Jacksonville Center
10:58AM 30.7822 -84.1475 324° Northwest 430 495 38,000  Level Jacksonville Center
10:59AM 30.8817 -84.2286 325° Northwest 430 495 38,000  Level Jacksonville Center
11:00AM 30.9789 -84.3078 325° Northwest 430 495 38,000  Level Jacksonville Center
11:01AM 31.0783 -84.3892 325° Northwest 435 501 38,000  Level Jacksonville Center
11:03AM 31.2511 -84.5319 325° Northwest 454 522 38,000  Level Atlanta Center
11:04AM 31.3489 -84.6128 325° Northwest 442 509 38,000  Level Atlanta Center
11:05AM 31.4444 -84.6936 324° Northwest 436 502 38,000  Level Atlanta Center
11:06AM 31.5483 -84.7822 324° Northwest 428 493 38,000  Level Atlanta Center
11:07AM 31.6458 -84.8633 325° Northwest 428 493 38,000 240 Level Atlanta Center
11:08AM 31.7411 -84.9447 324° Northwest 428 493 38,500 600 Climbing Atlanta Center
11:09AM 31.8344 -85.0239 324° Northwest 428 493 39,300 660 Climbing Atlanta Center
11:10AM 31.9300 -85.1033 325° Northwest 428 493 39,900 300 Climbing Atlanta Center
11:11AM 32.0211 -85.1756 326° Northwest 428 493 40,000  Climbing Atlanta Center
11:12AM 32.1164 -85.2575 324° Northwest 428 493 40,000  Level Atlanta Center
11:13AM 32.2136 -85.3400 324° Northwest 433 498 40,000  Level Atlanta Center
11:14AM 32.3128 -85.4250 324° Northwest 433 498 40,000  Level Atlanta Center
11:15AM 32.4142 -85.5078 325° Northwest 438 504 40,000  Level Atlanta Center
11:16AM 32.5133 -85.5931 324° Northwest 438 504 40,000  Level Atlanta Center
11:17AM 32.6125 -85.6764 325° Northwest 438 504 40,000  Level Atlanta Center
11:18AM 32.7114 -85.7619 324° Northwest 438 504 40,000  Level Atlanta Center
11:19AM 32.8064 -85.8456 324° Northwest 432 497 40,000  Level Atlanta Center
11:20AM 32.9031 -85.9317 323° Northwest 432 497 40,000  Level Atlanta Center
11:21AM 33.0019 -86.0128 325° Northwest 432 497 40,000  Level Atlanta Center
11:22AM 33.0967 -86.0994 323° Northwest 432 497 40,000  Level Atlanta Center
11:23AM 33.1931 -86.1886 322° Northwest 432 497 40,000  Level Atlanta Center
11:24AM 33.2919 -86.2706 325° Northwest 432 497 40,000  Level Atlanta Center
11:25AM 33.3864 -86.3550 323° Northwest 432 497 40,000  Level Atlanta Center
11:26AM 33.4911 -86.4500 323° Northwest 432 497 40,000  Level Atlanta Center
11:27AM 33.5792 -86.5272 324° Northwest 432 497 40,000  Level Atlanta Center
11:28AM 33.6836 -86.6200 324° Northwest 432 497 40,000  Level Atlanta Center
11:29AM 33.8322 -86.7539 323° Northwest 444 511 40,000  Level Memphis Center
11:30AM 33.9331 -86.8447 323° Northwest 444 511 40,000  Level Memphis Center
11:31AM 34.0317 -86.9358 323° Northwest 444 511 40,000  Level Memphis Center
11:32AM 34.1406 -87.0294 325° Northwest 445 512 40,000  Level Memphis Center
11:33AM 34.2411 -87.1186 324° Northwest 440 506 40,000  Level Memphis Center
11:34AM 34.3392 -87.2078 323° Northwest 440 506 40,000  Level Memphis Center
11:35AM 34.4397 -87.2972 324° Northwest 440 506 40,000  Level Memphis Center
11:36AM 34.5356 -87.3847 323° Northwest 440 506 40,000  Level Memphis Center
11:37AM 34.6253 -87.4725 321° Northwest 429 494 40,000  Level Memphis Center
11:38AM 34.7233 -87.5575 325° Northwest 427 491 40,000  Level Memphis Center
11:39AM 34.8147 -87.6406 323° Northwest 421 484 40,000  Level Memphis Center
11:40AM 34.9064 -87.7286 322° Northwest 421 484 40,000  Level Memphis Center
11:41AM 34.9894 -87.8072 322° Northwest 426 490 40,000  Level Memphis Center
11:42AM 35.0978 -87.9028 324° Northwest 435 501 40,000  Level Memphis Center
11:43AM 35.1956 -87.9939 323° Northwest 435 501 40,000  Level Memphis Center
11:44AM 35.2889 -88.0831 322° Northwest 440 506 40,000  Level Memphis Center
11:45AM 35.3844 -88.1744 322° Northwest 435 501 40,000  Level Memphis Center
11:46AM 35.4714 -88.2514 324° Northwest 430 495 40,000  Level Memphis Center
11:47AM 35.5644 -88.3408 322° Northwest 430 495 40,000  Level Memphis Center
11:48AM 35.6658 -88.4253 326° Northwest 430 495 40,000  Level Memphis Center
11:49AM 35.7733 -88.4994 331° Northwest 440 506 40,000  Level Memphis Center
11:50AM 35.8789 -88.5764 329° Northwest 440 506 40,000  Level Memphis Center
11:51AM 35.9842 -88.6536 329° Northwest 440 506 40,000  Level Memphis Center
11:52AM 36.0872 -88.7261 330° Northwest 434 499 40,000  Level Memphis Center
11:53AM 36.1906 -88.8036 329° Northwest 434 499 40,000  Level Memphis Center
11:54AM 36.2956 -88.8789 330° Northwest 434 499 40,000  Level Memphis Center
11:55AM 36.3986 -88.9517 330° Northwest 434 499 40,000 -360 Level Memphis Center
11:56AM 36.5017 -89.0300 329° Northwest 434 499 39,300 -840 Descending Memphis Center
11:57AM 36.6067 -89.1083 329° Northwest 434 499 38,400 -960 Descending Memphis Center
11:58AM 36.7075 -89.1819 330° Northwest 434 499 37,400 -960 Descending Memphis Center
11:59AM 36.8042 -89.2583 328° Northwest 429 494 36,500 -2,100 Descending Memphis Center
12:01PM 36.9969 -89.3997 330° Northwest 414 476 31,400 -2,580 Descending Kansas City Center
12:02PM 37.0889 -89.4689 329° Northwest 394 453 29,200 -2,160 Descending Kansas City Center
12:03PM 37.1756 -89.5333 329° Northwest 370 426 27,100 -1,560 Descending Kansas City Center
12:04PM 37.2639 -89.5947 331° Northwest 363 418 26,000 -540 Descending Kansas City Center
12:05PM 37.3600 -89.6458 337° Northwest 371 427 26,000  Level Kansas City Center
12:06PM 37.4567 -89.6981 337° Northwest 376 433 26,000 -540 Level Kansas City Center
12:07PM 37.5711 -89.7608 337° Northwest 373 429 24,900 -1,440 Descending Kansas City Center
12:09PM 37.6506 -89.8047 336° Northwest 367 422 23,100 -1,920 Descending Kansas City Center
12:10PM 37.7433 -89.8572 336° Northwest 367 422 21,000 -2,280 Descending Kansas City Center
12:11PM 37.8544 -89.9175 337° Northwest 352 405 18,500 -2,160 Descending Kansas City Center
12:11PM 37.8761 -89.8739 58° Northeast 339 390 18,100 -900 Descending FAA TRACON SMA TRACON (SMA)
12:11PM 37.9014 -89.8872 337° Northwest 328 377 17,900 -2,100 Descending FAA TRACON SMA TRACON (SMA)
12:12PM 37.9339 -89.9047 337° Northwest 327 376 16,700 -2,640 Descending FAA TRACON SMA TRACON (SMA)
12:12PM 37.9608 -89.9175 339° North 332 382 16,100 -1,980 Descending FAA TRACON SMA TRACON (SMA)
12:12PM 37.9856 -89.9342 332° Northwest 330 380 15,400 -2,040 Descending FAA TRACON SMA TRACON (SMA)
12:13PM 38.0108 -89.9492 335° Northwest 327 376 14,800 -2,100 Descending FAA TRACON SMA TRACON (SMA)
12:13PM 38.0425 -89.9661 337° Northwest 322 371 14,000 -2,100 Descending FAA TRACON SMA TRACON (SMA)
12:13PM 38.0678 -89.9797 337° Northwest 319 367 13,400 -1,800 Descending FAA TRACON SMA TRACON (SMA)
12:14PM 38.0919 -89.9953 333° Northwest 316 364 12,800 -1,920 Descending FAA TRACON SMA TRACON (SMA)
12:14PM 38.1231 -90.0092 341° North 312 359 12,100 -1,920 Descending FAA TRACON SMA TRACON (SMA)
12:14PM 38.1494 -90.0147 351° North 313 360 11,500 -1,860 Descending FAA TRACON SMA TRACON (SMA)
12:15PM 38.1756 -90.0175 355° North 310 357 10,900 -1,740 Descending FAA TRACON SMA TRACON (SMA)
12:15PM 38.2075 -90.0214 355° North 303 349 10,400 -1,080 Descending FAA TRACON SMA TRACON (SMA)
12:15PM 38.2317 -90.0247 354° North 292 336 10,200 -600 Descending FAA TRACON SMA TRACON (SMA)
12:16PM 38.2611 -90.0267 357° North 277 319 10,000 -780 Descending FAA TRACON SMA TRACON (SMA)
12:16PM 38.2831 -90.0292 355° North 264 304 9,700 -1,200 Descending FAA TRACON SMA TRACON (SMA)
12:16PM 38.3053 -90.0311 356° North 260 299 9,200 -1,500 Descending FAA TRACON SMA TRACON (SMA)
12:17PM 38.3272 -90.0344 353° North 259 298 8,700 -1,740 Descending FAA TRACON SMA TRACON (SMA)
12:17PM 38.3542 -90.0389 353° North 258 297 8,100 -1,500 Descending FAA TRACON SMA TRACON (SMA)
12:17PM 38.3769 -90.0397 358° North 258 297 7,700 -1,500 Descending FAA TRACON SMA TRACON (SMA)
12:18PM 38.4042 -90.0433 354° North 257 296 7,100 -1,500 Descending FAA TRACON SMA TRACON (SMA)
12:18PM 38.4261 -90.0450 357° North 256 295 6,700 -1,320 Descending FAA TRACON SMA TRACON (SMA)
12:18PM 38.4469 -90.0489 352° North 255 293 6,200 -1,620 Descending FAA TRACON SMA TRACON (SMA)
12:19PM 38.4750 -90.0514 356° North 257 296 5,600 -1,560 Descending FAA TRACON SMA TRACON (SMA)
12:19PM 38.4964 -90.0556 351° North 259 298 5,200 -1,260 Descending FAA TRACON SMA TRACON (SMA)
12:19PM 38.5161 -90.0653 339° North 254 292 4,800 -1,500 Descending FAA TRACON SMA TRACON (SMA)
12:20PM 38.5394 -90.0822 330° Northwest 248 285 4,200 -1,200 Descending FAA TRACON SMA TRACON (SMA)
12:20PM 38.5572 -90.0967 328° Northwest 246 283 4,000 -420 Descending FAA TRACON SMA TRACON (SMA)
12:20PM 38.5747 -90.1097 330° Northwest 239 275 3,900 -420 Descending FAA TRACON SMA TRACON (SMA)
12:21PM 38.5944 -90.1253 328° Northwest 223 257 3,700 -660 Descending FAA TRACON SMA TRACON (SMA)
12:21PM 38.6111 -90.1375 330° Northwest 221 254 3,500 -720 Descending FAA TRACON SMA TRACON (SMA)
12:21PM 38.6256 -90.1503 325° Northwest 211 243 3,300 -1,440 Descending FAA TRACON SMA TRACON (SMA)
12:22PM 38.6447 -90.1647 330° Northwest 208 239 2,600 -1,800 Descending FAA TRACON SMA TRACON (SMA)
12:22PM 38.6597 -90.1769 328° Northwest 207 238 2,100 -900 Descending FAA TRACON SMA TRACON (SMA)
12:22PM 38.6747 -90.1881 330° Northwest 203 234 2,000 -180 Descending FAA TRACON SMA TRACON (SMA)
12:23PM 38.6908 -90.2003 329° Northwest 181 208 2,000  Level FAA TRACON SMA TRACON (SMA)
12:23PM 38.6983 -90.2136 306° West 160 184 2,000 -600 Level FAA TRACON SMA TRACON (SMA)
12:23PM 38.7064 -90.2289 304° West 138 159 1,600 -960 Descending FAA TRACON SMA TRACON (SMA)
12:24PM 38.7128 -90.2419 302° West 137 158 1,400 -660 Descending FAA TRACON SMA TRACON (SMA)
12:24PM 38.7192 -90.2544 303° West 137 158 1,200 -780 Descending FAA TRACON SMA TRACON (SMA)
12:24PM 38.7253 -90.2669 302° West 135 155 900 -900 Descending FAA TRACON SMA TRACON (SMA)
12:25PM 38.7328 -90.2831 301° West 136 157 600 -900 Descending FAA TRACON SMA TRACON (SMA)
12:27PM 38.7333 -90.3667 282° West  Level FlightAware Approximate